createdAt,value
2022-12-25T00:01:22.786Z,9.33
2022-12-25T00:03:53.118Z,9.67
2022-12-25T00:06:23.490Z,8.87
2022-12-25T00:08:52.993Z,9.27
2022-12-25T00:11:23.207Z,8.63
2022-12-25T00:13:53.443Z,8.73
2022-12-25T00:16:27.410Z,9.07
2022-12-25T00:18:58.978Z,8.77
2022-12-25T00:21:28.402Z,8.50
2022-12-25T00:23:58.854Z,8.67
2022-12-25T00:26:29.557Z,7.80
2022-12-25T00:29:00.549Z,8.33
2022-12-25T00:31:32.525Z,7.80
2022-12-25T00:34:01.925Z,7.50
2022-12-25T00:36:33.725Z,8.50
2022-12-25T00:39:07.403Z,8.37
2022-12-25T00:41:49.335Z,8.63
2022-12-25T00:44:18.826Z,7.67
2022-12-25T00:46:50.871Z,7.77
2022-12-25T00:49:20.239Z,8.68
2022-12-25T00:51:51.025Z,8.03
2022-12-25T00:54:20.723Z,7.40
2022-12-25T00:56:50.410Z,7.47
2022-12-25T00:59:19.824Z,7.27
2022-12-25T01:01:51.844Z,7.30
2022-12-25T01:04:21.370Z,7.57
2022-12-25T01:06:50.735Z,7.40
2022-12-25T01:09:32.629Z,7.43
2022-12-25T01:12:01.973Z,6.83
2022-12-25T01:14:31.340Z,6.67
2022-12-25T01:17:03.279Z,7.07
2022-12-25T01:19:32.620Z,8.07
2022-12-25T01:22:01.999Z,8.00
2022-12-25T01:24:31.392Z,7.93
2022-12-25T01:27:00.756Z,6.97
2022-12-25T01:29:30.177Z,7.57
2022-12-25T01:31:59.631Z,6.03
2022-12-25T01:34:31.696Z,6.27
2022-12-25T01:37:01.109Z,5.85
2022-12-25T01:39:30.453Z,6.17
2022-12-25T01:42:00.051Z,7.63
2022-12-25T01:44:59.606Z,6.33
2022-12-25T01:47:28.988Z,6.67
2022-12-25T01:50:01.152Z,5.80
2022-12-25T01:52:31.804Z,6.68
2022-12-25T01:55:06.212Z,5.50
2022-12-25T01:57:38.692Z,6.37
2022-12-25T02:00:10.315Z,6.25
2022-12-25T02:02:40.946Z,5.00
2022-12-25T02:05:18.668Z,6.83
2022-12-25T02:07:49.717Z,5.50
2022-12-25T02:10:19.741Z,5.27
2022-12-25T02:12:50.870Z,5.60
2022-12-25T02:15:22.751Z,5.73
2022-12-25T02:18:03.755Z,6.28
2022-12-25T02:20:46.291Z,5.33
2022-12-25T02:23:37.162Z,5.37
2022-12-25T02:26:19.010Z,5.53
2022-12-25T02:28:57.884Z,5.90
2022-12-25T02:31:35.017Z,5.60
2022-12-25T02:34:11.510Z,5.50
2022-12-25T02:36:47.258Z,5.87
2022-12-25T02:39:43.110Z,6.00
2022-12-25T02:42:19.360Z,4.80
2022-12-25T02:45:05.799Z,5.63
2022-12-25T02:47:49.351Z,6.40
2022-12-25T02:50:32.725Z,5.80
2022-12-25T02:53:16.735Z,5.60
2022-12-25T02:56:01.963Z,5.10
2022-12-25T02:58:45.234Z,5.40
2022-12-25T03:01:32.672Z,5.50
2022-12-25T03:04:18.454Z,4.67
2022-12-25T03:07:03.621Z,5.67
2022-12-25T03:09:50.697Z,5.33
2022-12-25T03:12:27.799Z,5.87
2022-12-25T03:15:09.885Z,5.20
2022-12-25T03:17:41.954Z,5.43
2022-12-25T03:20:25.390Z,5.47
2022-12-25T03:23:08.520Z,6.10
2022-12-25T03:25:50.873Z,5.73
2022-12-25T03:28:20.261Z,5.20
2022-12-25T03:31:14.207Z,5.33
2022-12-25T03:34:24.784Z,6.50
2022-12-25T03:37:14.466Z,5.97
2022-12-25T03:40:04.344Z,5.00
2022-12-25T03:42:52.630Z,5.03
2022-12-25T03:45:40.705Z,5.33
2022-12-25T03:48:25.412Z,5.57
2022-12-25T03:51:16.456Z,5.23
2022-12-25T03:54:02.450Z,5.07
2022-12-25T03:56:45.855Z,5.07
2022-12-25T03:59:27.762Z,5.37
2022-12-25T04:02:09.841Z,4.80
2022-12-25T04:04:52.449Z,5.75
2022-12-25T04:07:36.985Z,5.50
2022-12-25T04:10:19.509Z,5.13
2022-12-25T04:13:01.492Z,4.82
2022-12-25T04:15:43.439Z,5.10
2022-12-25T04:18:25.805Z,5.10
2022-12-25T04:21:22.917Z,5.05
2022-12-25T04:24:07.355Z,5.50
2022-12-25T04:26:49.254Z,5.03
2022-12-25T04:29:31.146Z,5.90
2022-12-25T04:32:13.043Z,4.87
2022-12-25T04:34:54.942Z,5.17
2022-12-25T04:37:24.382Z,4.87
2022-12-25T04:39:56.304Z,5.00
2022-12-25T04:42:25.700Z,4.82
2022-12-25T04:44:55.048Z,4.37
2022-12-25T04:47:24.422Z,4.50
2022-12-25T04:49:53.922Z,6.20
2022-12-25T04:52:23.330Z,5.50
2022-12-25T04:54:52.941Z,4.77
2022-12-25T04:57:24.940Z,5.03
2022-12-25T04:59:54.327Z,4.55
2022-12-25T05:02:23.826Z,5.50
2022-12-25T05:04:53.344Z,4.90
2022-12-25T05:07:22.718Z,4.90
2022-12-25T05:09:52.093Z,4.33
2022-12-25T05:12:21.454Z,5.03
2022-12-25T05:14:53.401Z,5.77
2022-12-25T05:17:22.773Z,4.65
2022-12-25T05:19:52.141Z,4.57
2022-12-25T05:22:21.525Z,5.47
2022-12-25T05:24:50.859Z,4.37
2022-12-25T05:27:20.297Z,5.40
2022-12-25T05:29:49.671Z,5.17
2022-12-25T05:32:21.638Z,4.50
2022-12-25T05:34:51.066Z,5.35
2022-12-25T05:37:20.505Z,5.10
2022-12-25T05:39:49.874Z,4.77
2022-12-25T05:42:19.219Z,5.10
2022-12-25T05:44:48.566Z,5.33
2022-12-25T05:47:17.947Z,5.80
2022-12-25T05:49:49.882Z,5.40
2022-12-25T05:52:19.244Z,5.00
2022-12-25T05:54:48.614Z,4.57
2022-12-25T05:57:17.984Z,4.80
2022-12-25T05:59:47.292Z,4.43
2022-12-25T06:02:16.735Z,4.47
2022-12-25T06:04:46.265Z,5.00
2022-12-25T06:07:18.172Z,4.13
2022-12-25T06:09:47.538Z,4.15
2022-12-25T06:12:17.038Z,4.73
2022-12-25T06:14:46.399Z,4.77
2022-12-25T06:17:15.847Z,4.27
2022-12-25T06:19:45.645Z,4.87
2022-12-25T06:22:14.995Z,5.20
2022-12-25T06:24:47.127Z,5.50
2022-12-25T06:27:16.510Z,4.85
2022-12-25T06:29:45.894Z,5.07
2022-12-25T06:32:15.326Z,5.40
2022-12-25T06:34:44.743Z,4.73
2022-12-25T06:37:14.200Z,4.30
2022-12-25T06:39:43.632Z,5.00
2022-12-25T06:42:15.596Z,6.20
2022-12-25T06:44:44.970Z,4.47
2022-12-25T06:47:14.370Z,5.13
2022-12-25T06:49:43.752Z,5.07
2022-12-25T06:52:13.193Z,5.50
2022-12-25T06:54:42.554Z,4.43
2022-12-25T06:57:12.038Z,4.80
2022-12-25T06:59:45.604Z,4.20
2022-12-25T07:02:22.422Z,5.43
2022-12-25T07:04:52.124Z,4.70
2022-12-25T07:07:23.030Z,4.93
2022-12-25T07:09:52.616Z,4.80
2022-12-25T07:12:24.449Z,4.40
2022-12-25T07:14:57.321Z,5.10
2022-12-25T07:17:27.331Z,4.93
2022-12-25T07:19:57.280Z,4.97
2022-12-25T07:22:26.750Z,4.83
2022-12-25T07:24:56.162Z,5.17
2022-12-25T07:27:25.580Z,4.87
2022-12-25T07:29:57.541Z,5.43
2022-12-25T07:32:26.940Z,5.03
2022-12-25T07:34:56.323Z,5.07
2022-12-25T07:37:25.729Z,5.07
2022-12-25T07:39:55.125Z,4.60
2022-12-25T07:42:25.469Z,4.50
2022-12-25T07:44:59.750Z,5.18
2022-12-25T07:47:29.107Z,4.63
2022-12-25T07:49:58.495Z,5.60
2022-12-25T07:52:27.940Z,4.60
2022-12-25T07:54:57.314Z,4.33
2022-12-25T07:57:26.719Z,4.53
2022-12-25T07:59:58.723Z,4.40
2022-12-25T08:02:29.195Z,4.57
2022-12-25T08:04:58.882Z,3.97
2022-12-25T08:07:28.610Z,4.90
2022-12-25T08:09:58.081Z,4.67
2022-12-25T08:12:27.484Z,4.70
2022-12-25T08:14:59.473Z,4.83
2022-12-25T08:17:28.929Z,5.63
2022-12-25T08:19:58.327Z,4.57
2022-12-25T08:22:27.765Z,5.00
2022-12-25T08:24:57.152Z,4.90
2022-12-25T08:27:26.699Z,5.87
2022-12-25T08:29:58.674Z,4.33
2022-12-25T08:32:28.322Z,4.57
2022-12-25T08:34:57.746Z,5.43
2022-12-25T08:37:27.175Z,5.40
2022-12-25T08:39:56.557Z,5.60
2022-12-25T08:42:25.980Z,5.00
2022-12-25T08:44:55.433Z,4.57
2022-12-25T08:47:27.422Z,5.20
2022-12-25T08:49:56.783Z,5.10
2022-12-25T08:52:26.570Z,4.90
2022-12-25T08:54:56.351Z,6.13
2022-12-25T08:57:25.752Z,4.83
2022-12-25T08:59:55.214Z,5.40
2022-12-25T09:02:27.376Z,4.40
2022-12-25T09:04:56.911Z,4.97
2022-12-25T09:07:26.325Z,4.67
2022-12-25T09:10:04.507Z,5.47
2022-12-25T09:12:33.917Z,4.70
2022-12-25T09:15:03.270Z,4.93
2022-12-25T09:17:35.857Z,4.93
2022-12-25T09:20:05.937Z,4.57
2022-12-25T09:22:36.430Z,4.30
2022-12-25T09:25:06.171Z,4.80
2022-12-25T09:27:35.563Z,4.93
2022-12-25T09:30:04.986Z,5.03
2022-12-25T09:32:36.993Z,4.33
2022-12-25T09:35:06.672Z,4.80
2022-12-25T09:37:36.083Z,5.83
2022-12-25T09:40:05.900Z,5.20
2022-12-25T09:42:35.451Z,4.83
2022-12-25T09:45:08.467Z,4.70
2022-12-25T09:47:44.580Z,5.17
2022-12-25T09:50:16.499Z,5.67
2022-12-25T09:52:52.540Z,5.30
2022-12-25T09:55:25.323Z,6.90
2022-12-25T10:00:26.767Z,5.23
2022-12-25T10:03:14.915Z,5.97
2022-12-25T10:05:55.644Z,5.70
2022-12-25T10:08:38.447Z,5.80
2022-12-25T10:11:18.831Z,5.15
2022-12-25T10:14:02.667Z,5.40
2022-12-25T10:16:40.029Z,5.87
2022-12-25T10:19:29.658Z,4.93
2022-12-25T10:22:03.284Z,5.23
2022-12-25T10:24:39.184Z,5.07
2022-12-25T10:27:16.843Z,4.83
2022-12-25T10:29:47.432Z,6.13
2022-12-25T10:32:17.039Z,6.37
2022-12-25T10:34:49.627Z,6.13
2022-12-25T10:37:19.639Z,7.20
2022-12-25T10:39:49.021Z,5.70
2022-12-25T10:42:33.602Z,5.70
2022-12-25T10:45:04.470Z,6.13
2022-12-25T10:47:37.985Z,6.57
2022-12-25T10:50:15.413Z,6.07
2022-12-25T10:52:57.271Z,6.37
2022-12-25T10:55:29.567Z,6.47
2022-12-25T10:58:02.075Z,7.57
2022-12-25T11:00:33.674Z,7.07
2022-12-25T11:03:03.423Z,7.30
2022-12-25T11:05:37.624Z,7.67
2022-12-25T11:08:21.844Z,6.07
2022-12-25T11:10:57.890Z,6.63
2022-12-25T11:13:29.844Z,6.13
2022-12-25T11:16:09.495Z,5.97
2022-12-25T11:18:49.627Z,5.30
2022-12-25T11:21:25.556Z,5.23
2022-12-25T11:24:00.302Z,5.50
2022-12-25T11:26:31.315Z,4.80
2022-12-25T11:29:01.249Z,5.67
2022-12-25T11:31:39.873Z,5.33
2022-12-25T11:34:14.214Z,4.83
2022-12-25T11:36:49.578Z,5.30
2022-12-25T11:39:26.636Z,4.63
2022-12-25T11:42:00.532Z,4.60
2022-12-25T11:44:43.723Z,5.03
2022-12-25T11:47:20.399Z,4.87
2022-12-25T11:49:58.622Z,4.37
2022-12-25T11:52:38.072Z,4.17
2022-12-25T11:55:14.421Z,4.63
2022-12-25T11:57:46.260Z,5.03
2022-12-25T12:00:18.759Z,4.57
2022-12-25T12:02:53.973Z,4.65
2022-12-25T12:05:28.561Z,5.20
2022-12-25T12:08:03.245Z,5.00
2022-12-25T12:10:41.156Z,5.87
2022-12-25T12:13:27.783Z,5.27
2022-12-25T12:15:58.535Z,6.17
2022-12-25T12:18:33.511Z,5.63
2022-12-25T12:21:05.581Z,5.97
2022-12-25T12:23:39.850Z,6.35
2022-12-25T12:26:09.293Z,5.87
2022-12-25T12:28:47.564Z,6.20
2022-12-25T12:31:17.709Z,5.90
2022-12-25T12:33:56.032Z,6.43
2022-12-25T12:36:35.561Z,5.27
2022-12-25T12:39:08.693Z,4.87
2022-12-25T12:41:48.374Z,5.47
2022-12-25T12:44:19.652Z,4.90
2022-12-25T12:46:57.710Z,5.37
2022-12-25T12:49:29.409Z,5.07
2022-12-25T12:52:16.114Z,4.95
2022-12-25T12:54:59.618Z,5.00
2022-12-25T12:57:32.758Z,4.90
2022-12-25T13:00:10.042Z,5.27
2022-12-25T13:03:05.560Z,5.13
2022-12-25T13:05:41.807Z,4.93
2022-12-25T13:08:28.341Z,5.80
2022-12-25T13:11:13.250Z,5.40
2022-12-25T13:13:44.577Z,5.13
2022-12-25T13:16:22.353Z,4.70
2022-12-25T13:18:53.760Z,5.40
2022-12-25T13:21:25.572Z,4.40
2022-12-25T13:24:08.876Z,5.00
2022-12-25T13:26:42.097Z,5.00
2022-12-25T13:29:25.032Z,4.87
2022-12-25T13:34:33.790Z,5.17
2022-12-25T13:37:09.714Z,4.40
2022-12-25T13:39:42.114Z,3.77
2022-12-25T13:42:20.689Z,4.28
2022-12-25T13:44:52.614Z,4.73
2022-12-25T13:47:25.691Z,4.70
2022-12-25T13:49:56.936Z,4.87
2022-12-25T13:52:31.143Z,4.23
2022-12-25T13:55:02.877Z,4.67
2022-12-25T13:57:37.986Z,4.60
2022-12-25T14:00:10.062Z,4.77
2022-12-25T14:02:42.223Z,5.47
2022-12-25T14:05:26.267Z,4.80
2022-12-25T14:07:56.247Z,5.40
2022-12-25T14:10:27.864Z,4.23
2022-12-25T14:13:04.785Z,4.57
2022-12-25T14:15:36.426Z,4.13
2022-12-25T14:18:05.922Z,4.20
2022-12-25T14:20:39.788Z,4.03
2022-12-25T14:23:10.092Z,4.83
2022-12-25T14:25:45.689Z,4.03
2022-12-25T14:28:23.439Z,4.00
2022-12-25T14:30:53.096Z,4.03
2022-12-25T14:33:25.930Z,4.00
2022-12-25T14:38:27.400Z,4.63
2022-12-25T14:41:04.499Z,4.43
2022-12-25T14:43:37.165Z,4.40
2022-12-25T14:46:09.081Z,3.83
2022-12-25T14:48:38.497Z,4.65
2022-12-25T14:51:11.681Z,4.20
2022-12-25T14:53:43.794Z,4.10
2022-12-25T14:56:13.213Z,4.18
2022-12-25T14:58:50.924Z,4.10
2022-12-25T15:01:25.013Z,4.87
2022-12-25T15:03:54.973Z,5.20
2022-12-25T15:06:25.376Z,4.40
2022-12-25T15:09:00.082Z,4.60
2022-12-25T15:11:30.172Z,5.07
2022-12-25T15:14:02.386Z,4.63
2022-12-25T15:16:35.444Z,4.60
2022-12-25T15:19:04.889Z,4.20
2022-12-25T15:21:37.105Z,4.40
2022-12-25T15:24:07.186Z,4.95
2022-12-25T15:26:36.587Z,4.60
2022-12-25T15:29:09.433Z,4.17
2022-12-25T15:31:41.235Z,5.30
2022-12-25T15:34:20.373Z,4.72
2022-12-25T15:36:49.873Z,4.70
2022-12-25T15:39:19.238Z,4.80
2022-12-25T15:42:01.129Z,4.60
2022-12-25T15:44:33.068Z,5.37
2022-12-25T15:47:02.421Z,5.07
2022-12-25T15:49:31.851Z,5.30
2022-12-25T15:52:03.613Z,5.47
2022-12-25T15:54:33.210Z,5.30
2022-12-25T15:57:04.979Z,6.10
2022-12-25T15:59:36.943Z,5.23
2022-12-25T16:02:16.226Z,5.13
2022-12-25T16:04:46.409Z,5.07
2022-12-25T16:07:17.918Z,5.23
2022-12-25T16:09:47.775Z,5.13
2022-12-25T16:12:17.154Z,6.23
2022-12-25T16:14:49.129Z,5.17
2022-12-25T16:17:18.494Z,5.88
2022-12-25T16:19:48.006Z,5.30
2022-12-25T16:22:23.103Z,5.83
2022-12-25T16:24:52.905Z,6.27
2022-12-25T16:27:22.548Z,5.67
2022-12-25T16:29:55.029Z,4.83
2022-12-25T16:32:24.554Z,5.22
2022-12-25T16:34:54.091Z,6.10
2022-12-25T16:37:24.566Z,6.03
2022-12-25T16:39:53.965Z,5.87
2022-12-25T16:42:23.403Z,5.87
2022-12-25T16:44:55.377Z,5.43
2022-12-25T16:47:24.739Z,4.78
2022-12-25T16:49:54.094Z,5.70
2022-12-25T16:52:23.674Z,5.80
2022-12-25T16:54:53.044Z,5.10
2022-12-25T16:57:22.416Z,5.27
2022-12-25T16:59:54.720Z,5.60
2022-12-25T17:02:24.623Z,5.40
2022-12-25T17:04:54.703Z,6.57
2022-12-25T17:07:24.112Z,7.10
2022-12-25T17:09:53.530Z,6.50
2022-12-25T17:12:22.896Z,6.50
2022-12-25T17:14:54.938Z,7.00
2022-12-25T17:17:24.303Z,6.82
2022-12-25T17:19:53.711Z,6.53
2022-12-25T17:22:23.114Z,6.40
2022-12-25T17:24:52.503Z,5.70
2022-12-25T17:27:21.888Z,6.50
2022-12-25T17:29:51.519Z,6.17
2022-12-25T17:32:23.502Z,5.97
2022-12-25T17:34:53.362Z,8.05
2022-12-25T17:37:22.796Z,7.13
2022-12-25T17:39:52.152Z,7.50
2022-12-25T17:42:21.558Z,7.13
2022-12-25T17:44:51.001Z,6.73
2022-12-25T17:47:23.486Z,7.13
2022-12-25T17:49:53.025Z,7.50
2022-12-25T17:52:22.397Z,6.80
2022-12-25T17:54:51.819Z,7.60
2022-12-25T17:57:21.233Z,8.10
2022-12-25T17:59:51.679Z,5.80
2022-12-25T18:02:24.092Z,5.87
2022-12-25T18:04:53.697Z,5.05
2022-12-25T18:07:23.322Z,5.10
2022-12-25T18:09:52.950Z,5.30
2022-12-25T18:12:22.418Z,5.33
2022-12-25T18:14:51.794Z,5.27
2022-12-25T18:17:23.811Z,4.87
2022-12-25T18:19:53.343Z,5.50
2022-12-25T18:22:22.840Z,5.07
2022-12-25T18:24:52.700Z,4.80
2022-12-25T18:27:22.190Z,5.17
2022-12-25T18:29:51.524Z,5.47
2022-12-25T18:32:28.040Z,5.00
2022-12-25T18:34:58.035Z,5.80
2022-12-25T18:37:28.044Z,5.60
2022-12-25T18:39:57.447Z,5.87
2022-12-25T18:42:43.113Z,5.03
2022-12-25T18:45:14.830Z,7.47
2022-12-25T18:47:47.406Z,6.97
2022-12-25T18:50:16.819Z,7.03
2022-12-25T18:52:48.406Z,6.77
2022-12-25T18:55:20.793Z,6.90
2022-12-25T18:57:50.475Z,6.13
2022-12-25T19:00:20.626Z,6.93
2022-12-25T19:02:53.292Z,6.87
2022-12-25T19:05:23.670Z,5.27
2022-12-25T19:07:53.200Z,6.30
2022-12-25T19:10:22.836Z,5.60
2022-12-25T19:12:52.244Z,5.70
2022-12-25T19:15:21.664Z,5.80
2022-12-25T19:17:53.844Z,6.03
2022-12-25T19:20:23.245Z,5.93
2022-12-25T19:22:52.702Z,5.23
2022-12-25T19:25:22.295Z,6.40
2022-12-25T19:27:51.673Z,6.30
2022-12-25T19:30:21.224Z,6.07
2022-12-25T19:32:53.251Z,5.67
2022-12-25T19:35:22.828Z,5.85
2022-12-25T19:37:52.312Z,5.53
2022-12-25T19:40:22.628Z,5.53
2022-12-25T19:42:52.063Z,6.20
2022-12-25T19:45:21.587Z,5.60
2022-12-25T19:47:53.566Z,5.47
2022-12-25T19:50:28.349Z,6.03
2022-12-25T19:52:57.865Z,6.37
2022-12-25T19:55:27.291Z,6.57
2022-12-25T19:57:59.181Z,5.63
2022-12-25T20:00:28.652Z,5.90
2022-12-25T20:03:01.446Z,6.10
2022-12-25T20:05:31.911Z,6.40
2022-12-25T20:08:01.398Z,6.23
2022-12-25T20:10:30.770Z,6.50
2022-12-25T20:13:00.255Z,6.13
2022-12-25T20:15:29.617Z,6.20
2022-12-25T20:18:02.905Z,6.67
2022-12-25T20:20:32.940Z,5.80
2022-12-25T20:23:02.341Z,5.70
2022-12-25T20:25:31.801Z,6.00
2022-12-25T20:28:01.250Z,6.00
2022-12-25T20:30:30.685Z,6.57
2022-12-25T20:33:02.682Z,6.43
2022-12-25T20:35:32.089Z,6.80
2022-12-25T20:38:01.478Z,5.80
2022-12-25T20:40:32.461Z,5.73
2022-12-25T20:43:11.631Z,6.53
2022-12-25T20:45:43.103Z,5.60
2022-12-25T20:48:15.096Z,6.70
2022-12-25T20:50:44.487Z,6.82
2022-12-25T20:53:13.883Z,6.83
2022-12-25T20:55:48.114Z,5.90
2022-12-25T20:58:19.588Z,6.40
2022-12-25T21:00:49.048Z,6.17
2022-12-25T21:03:21.319Z,6.17
2022-12-25T21:05:54.015Z,6.63
2022-12-25T21:08:25.804Z,5.65
2022-12-25T21:11:00.679Z,6.00
2022-12-25T21:13:32.900Z,6.03
2022-12-25T21:16:02.785Z,6.32
2022-12-25T21:18:34.791Z,5.57
2022-12-25T21:21:09.972Z,5.68
2022-12-25T21:23:41.741Z,5.50
2022-12-25T21:26:16.808Z,6.20
2022-12-25T21:28:46.177Z,5.63
2022-12-25T21:31:15.721Z,5.83
2022-12-25T21:33:52.053Z,5.40
2022-12-25T21:36:27.096Z,6.00
2022-12-25T21:38:58.792Z,6.30
2022-12-25T21:41:29.892Z,5.60
2022-12-25T21:43:59.764Z,5.63
2022-12-25T21:46:30.444Z,5.20
2022-12-25T21:49:03.350Z,4.97
2022-12-25T21:51:47.505Z,5.80
2022-12-25T21:54:18.454Z,5.17
2022-12-25T21:56:49.738Z,6.23
2022-12-25T21:59:20.741Z,5.70
2022-12-25T22:01:51.752Z,6.03
2022-12-25T22:04:25.670Z,6.27
2022-12-25T22:07:07.778Z,6.60
2022-12-25T22:09:37.413Z,6.28
2022-12-25T22:12:19.878Z,6.83
2022-12-25T22:15:02.495Z,6.60
2022-12-25T22:17:46.344Z,6.88
2022-12-25T22:20:20.353Z,5.40
2022-12-25T22:22:50.131Z,7.67
2022-12-25T22:25:20.415Z,6.97
2022-12-25T22:27:50.945Z,7.23
2022-12-25T22:30:22.871Z,7.13
2022-12-25T22:32:52.536Z,6.70
2022-12-25T22:35:25.052Z,6.47
2022-12-25T22:37:54.799Z,5.95
2022-12-25T22:40:24.573Z,6.20
2022-12-25T22:42:56.497Z,5.20
2022-12-25T22:45:26.115Z,5.32
2022-12-25T22:47:55.501Z,6.33
2022-12-25T22:50:27.525Z,5.20
2022-12-25T22:52:56.896Z,5.38
2022-12-25T22:55:26.414Z,5.33
2022-12-25T22:57:55.807Z,5.37
2022-12-25T23:00:25.226Z,5.60
2022-12-25T23:02:54.727Z,5.63
2022-12-25T23:05:27.123Z,6.17
2022-12-25T23:07:56.554Z,4.78
2022-12-25T23:10:25.930Z,4.50
2022-12-25T23:13:07.813Z,4.70
2022-12-25T23:15:37.216Z,4.23
2022-12-25T23:18:19.688Z,3.87
2022-12-25T23:21:04.307Z,4.10
2022-12-25T23:23:46.217Z,3.33
2022-12-25T23:26:17.212Z,3.40
2022-12-25T23:28:59.269Z,3.50
2022-12-25T23:31:31.709Z,2.92
2022-12-25T23:34:01.286Z,3.20
2022-12-25T23:36:33.658Z,3.00
2022-12-25T23:39:09.562Z,2.95
2022-12-25T23:41:39.970Z,3.00
2022-12-25T23:44:09.788Z,4.50
2022-12-25T23:46:40.136Z,8.53
2022-12-25T23:49:11.291Z,9.43
2022-12-25T23:51:45.686Z,11.20
2022-12-25T23:54:17.613Z,9.87
2022-12-25T23:56:47.563Z,11.95
2022-12-25T23:59:17.345Z,8.27
